Hayward, California
Current Conditions -  °F | °C
As of 7:54 PM on Saturday 20 Dec 2014 (Local Time) from KHWD Reporting Station
Overcast Overcast  
Wind Chill: 57°   Ceiling: 3000
Heat Index: 57°   Visibility: 10mi
Dew Point: 52°   Wind: 3mph
Humidity: 83%   Direction: 200°SSW
Pressure: 30.24"   Gusts: NA
Location:  37.67°N, 122.08°W
Report Text: KHWD 210354Z 20003KT 10SM OVC030 14/11 A3024 RMK AO2 SLP249 T01390111
Loading
Personal Weather Stations






























Interactive Weather Map New forecast layout! Learn more

10-Day Weather Forecast

Advertisements
Track Severe Weather on mobile